createdAt,value
2022-10-14T00:00:00.404Z,100512
2022-10-14T00:01:04.380Z,100512
2022-10-14T00:02:00.460Z,100494
2022-10-14T00:03:00.327Z,100494
2022-10-14T00:04:00.592Z,100494
2022-10-14T00:05:00.375Z,100494
2022-10-14T00:06:03.219Z,100494
2022-10-14T00:07:00.336Z,100490
2022-10-14T00:08:00.449Z,100490
2022-10-14T00:09:02.176Z,100490
2022-10-14T00:10:00.520Z,100490
2022-10-14T00:11:04.322Z,100490
2022-10-14T00:12:00.370Z,100491
2022-10-14T00:13:00.332Z,100491
2022-10-14T00:14:02.031Z,100491
2022-10-14T00:15:00.413Z,100491
2022-10-14T00:16:01.388Z,100491
2022-10-14T00:17:00.318Z,100489
2022-10-14T00:18:00.323Z,100489
2022-10-14T00:19:00.764Z,100489
2022-10-14T00:20:00.374Z,100489
2022-10-14T00:21:01.074Z,100489
2022-10-14T00:22:00.343Z,100487
2022-10-14T00:23:00.416Z,100487
2022-10-14T00:24:00.366Z,100487
2022-10-14T00:25:00.375Z,100487
2022-10-14T00:26:00.385Z,100487
2022-10-14T00:27:00.419Z,100473
2022-10-14T00:28:00.338Z,100473
2022-10-14T00:29:00.805Z,100473
2022-10-14T00:30:00.469Z,100473
2022-10-14T00:31:01.279Z,100473
2022-10-14T00:32:00.403Z,100470
2022-10-14T00:33:00.376Z,100470
2022-10-14T00:34:00.641Z,100470
2022-10-14T00:35:00.326Z,100470
2022-10-14T00:36:02.170Z,100470
2022-10-14T00:37:00.497Z,100467
2022-10-14T00:38:00.349Z,100467
2022-10-14T00:39:00.351Z,100467
2022-10-14T00:40:00.414Z,100467
2022-10-14T00:41:00.733Z,100467
2022-10-14T00:42:00.361Z,100469
2022-10-14T00:43:00.328Z,100469
2022-10-14T00:44:10.238Z,100469
2022-10-14T00:45:02.718Z,100469
2022-10-14T00:46:00.313Z,100469
2022-10-14T00:47:00.360Z,100473
2022-10-14T00:48:00.325Z,100473
2022-10-14T00:49:04.999Z,100473
2022-10-14T00:50:00.712Z,100473
2022-10-14T00:51:00.417Z,100473
2022-10-14T00:52:02.221Z,100479
2022-10-14T00:53:00.456Z,100479
2022-10-14T00:54:00.367Z,100479
2022-10-14T00:55:02.576Z,100479
2022-10-14T00:56:00.727Z,100479
2022-10-14T00:57:01.149Z,100496
2022-10-14T00:58:00.344Z,100496
2022-10-14T00:59:01.687Z,100496
2022-10-14T01:00:03.512Z,100496
2022-10-14T01:01:00.361Z,100496
2022-10-14T01:02:00.527Z,100479
2022-10-14T01:03:00.392Z,100479
2022-10-14T01:04:00.358Z,100479
2022-10-14T01:05:01.172Z,100479
2022-10-14T01:06:00.335Z,100479
2022-10-14T01:07:10.221Z,100471
2022-10-14T01:08:09.666Z,100471
2022-10-14T01:09:00.337Z,100471
2022-10-14T01:10:05.957Z,100471
2022-10-14T01:11:06.985Z,100471
2022-10-14T01:12:27.413Z,100459
2022-10-14T01:13:03.084Z,100459
2022-10-14T01:14:10.217Z,100459
2022-10-14T01:15:10.214Z,100459
2022-10-14T01:16:10.221Z,100459
2022-10-14T01:17:05.304Z,100460
2022-10-14T01:18:10.258Z,100460
2022-10-14T01:19:10.219Z,100460
2022-10-14T01:20:10.225Z,100460
2022-10-14T01:21:10.246Z,100460
2022-10-14T01:22:10.216Z,100454
2022-10-14T01:23:00.323Z,100454
2022-10-14T01:24:10.209Z,100454
2022-10-14T01:25:01.370Z,100454
2022-10-14T01:26:01.356Z,100454
2022-10-14T01:27:10.215Z,100449
2022-10-14T01:28:03.584Z,100449
2022-10-14T01:29:10.214Z,100449
2022-10-14T01:30:05.619Z,100449
2022-10-14T01:31:02.861Z,100449
2022-10-14T01:32:04.708Z,100455
2022-10-14T01:33:06.938Z,100455
2022-10-14T01:34:04.063Z,100455
2022-10-14T01:35:00.332Z,100455
2022-10-14T01:36:10.214Z,100455
2022-10-14T01:37:04.111Z,100436
2022-10-14T01:38:03.230Z,100436
2022-10-14T01:39:10.199Z,100436
2022-10-14T01:40:04.469Z,100436
2022-10-14T01:41:03.739Z,100436
2022-10-14T01:42:03.730Z,100435
2022-10-14T01:43:02.283Z,100435
2022-10-14T01:44:02.540Z,100435
2022-10-14T01:45:03.775Z,100435
2022-10-14T01:46:02.494Z,100435
2022-10-14T01:47:02.094Z,100438
2022-10-14T01:48:02.461Z,100438
2022-10-14T01:49:03.889Z,100438
2022-10-14T01:50:03.406Z,100438
2022-10-14T01:51:01.794Z,100438
2022-10-14T01:52:05.656Z,100432
2022-10-14T01:53:03.961Z,100432
2022-10-14T01:54:04.922Z,100432
2022-10-14T01:55:02.550Z,100432
2022-10-14T01:56:01.512Z,100432
2022-10-14T01:57:02.559Z,100419
2022-10-14T01:58:00.643Z,100419
2022-10-14T01:59:02.140Z,100419
2022-10-14T02:00:01.081Z,100419
2022-10-14T02:01:02.628Z,100419
2022-10-14T02:02:00.418Z,100406
2022-10-14T02:03:00.359Z,100406
2022-10-14T02:04:00.366Z,100406
2022-10-14T02:05:00.715Z,100406
2022-10-14T02:06:04.745Z,100406
2022-10-14T02:07:06.347Z,100406
2022-10-14T02:08:08.189Z,100406
2022-10-14T02:09:00.311Z,100406
2022-10-14T02:10:10.220Z,100406
2022-10-14T02:11:02.359Z,100406
2022-10-14T02:12:10.220Z,100397
2022-10-14T02:13:06.850Z,100397
2022-10-14T02:14:10.213Z,100397
2022-10-14T02:15:10.211Z,100397
2022-10-14T02:16:10.208Z,100397
2022-10-14T02:17:03.675Z,100396
2022-10-14T02:18:10.207Z,100396
2022-10-14T02:19:07.229Z,100396
2022-10-14T02:20:07.496Z,100396
2022-10-14T02:21:10.216Z,100396
2022-10-14T02:22:00.308Z,100391
2022-10-14T02:23:05.508Z,100391
2022-10-14T02:24:04.124Z,100391
2022-10-14T02:25:05.811Z,100391
2022-10-14T02:26:00.948Z,100391
2022-10-14T02:27:02.905Z,100384
2022-10-14T02:28:01.973Z,100384
2022-10-14T02:29:01.215Z,100384
2022-10-14T02:30:00.563Z,100384
2022-10-14T02:31:03.606Z,100384
2022-10-14T02:32:01.847Z,100373
2022-10-14T02:33:00.845Z,100373
2022-10-14T02:34:02.571Z,100373
2022-10-14T02:35:00.947Z,100373
2022-10-14T02:36:01.366Z,100373
2022-10-14T02:37:00.586Z,100364
2022-10-14T02:38:01.453Z,100364
2022-10-14T02:39:00.624Z,100364
2022-10-14T02:40:06.172Z,100364
2022-10-14T02:41:03.337Z,100364
2022-10-14T02:42:00.486Z,100359
2022-10-14T02:43:00.442Z,100359
2022-10-14T02:44:00.519Z,100359
2022-10-14T02:45:00.630Z,100359
2022-10-14T02:46:01.868Z,100359
2022-10-14T02:47:00.347Z,100355
2022-10-14T02:48:00.313Z,100355
2022-10-14T02:49:00.323Z,100355
2022-10-14T02:50:00.522Z,100355
2022-10-14T02:51:00.395Z,100355
2022-10-14T02:52:01.480Z,100344
2022-10-14T02:53:00.433Z,100344
2022-10-14T02:54:00.319Z,100344
2022-10-14T02:55:00.317Z,100344
2022-10-14T02:56:00.427Z,100344
2022-10-14T02:57:00.318Z,100350
2022-10-14T02:58:00.318Z,100350
2022-10-14T02:59:00.361Z,100350
2022-10-14T03:00:00.413Z,100350
2022-10-14T03:01:00.317Z,100350
2022-10-14T03:02:00.452Z,100340
2022-10-14T03:03:00.329Z,100340
2022-10-14T03:04:00.306Z,100340
2022-10-14T03:05:00.333Z,100340
2022-10-14T03:06:00.364Z,100340
2022-10-14T03:07:00.361Z,100335
2022-10-14T03:08:00.401Z,100335
2022-10-14T03:09:00.526Z,100335
2022-10-14T03:10:00.325Z,100335
2022-10-14T03:11:00.367Z,100335
2022-10-14T03:12:00.312Z,100329
2022-10-14T03:13:00.319Z,100329
2022-10-14T03:14:00.317Z,100329
2022-10-14T03:15:00.354Z,100329
2022-10-14T03:16:00.311Z,100329
2022-10-14T03:17:00.353Z,100326
2022-10-14T03:18:00.339Z,100326
2022-10-14T03:19:00.484Z,100326
2022-10-14T03:20:00.325Z,100326
2022-10-14T03:21:00.358Z,100326
2022-10-14T03:22:00.373Z,100319
2022-10-14T03:23:00.319Z,100319
2022-10-14T03:24:00.343Z,100319
2022-10-14T03:25:00.351Z,100319
2022-10-14T03:26:00.298Z,100319
2022-10-14T03:27:00.478Z,100312
2022-10-14T03:28:00.324Z,100312
2022-10-14T03:29:00.451Z,100312
2022-10-14T03:30:00.402Z,100312
2022-10-14T03:31:00.323Z,100312
2022-10-14T03:32:00.406Z,100299
2022-10-14T03:33:00.451Z,100299
2022-10-14T03:34:00.295Z,100299
2022-10-14T03:35:00.318Z,100299
2022-10-14T03:36:00.303Z,100299
2022-10-14T03:37:00.299Z,100279
2022-10-14T03:38:00.336Z,100279
2022-10-14T03:39:00.367Z,100279
2022-10-14T03:40:00.379Z,100279
2022-10-14T03:41:00.378Z,100279
2022-10-14T03:42:00.307Z,100267
2022-10-14T03:43:00.469Z,100267
2022-10-14T03:44:00.432Z,100267
2022-10-14T03:45:00.549Z,100267
2022-10-14T03:46:00.325Z,100267
2022-10-14T03:47:00.308Z,100253
2022-10-14T03:48:00.332Z,100253
2022-10-14T03:49:00.291Z,100253
2022-10-14T03:50:00.309Z,100253
2022-10-14T03:51:00.310Z,100253
2022-10-14T03:52:00.302Z,100238
2022-10-14T03:53:00.339Z,100238
2022-10-14T03:54:00.347Z,100238
2022-10-14T03:55:00.464Z,100238
2022-10-14T03:56:00.325Z,100238
2022-10-14T03:57:00.332Z,100225
2022-10-14T03:58:00.398Z,100225
2022-10-14T03:59:00.354Z,100225
2022-10-14T04:00:00.504Z,100225
2022-10-14T04:01:00.298Z,100225
2022-10-14T04:02:00.380Z,100228
2022-10-14T04:03:00.368Z,100228
2022-10-14T04:04:00.314Z,100228
2022-10-14T04:05:01.167Z,100228
2022-10-14T04:06:00.351Z,100228
2022-10-14T04:07:00.317Z,100232
2022-10-14T04:08:00.358Z,100232
2022-10-14T04:09:00.310Z,100232
2022-10-14T04:10:00.515Z,100232
2022-10-14T04:11:00.404Z,100232
2022-10-14T04:12:00.324Z,100230
2022-10-14T04:13:00.313Z,100230
2022-10-14T04:14:00.298Z,100230
2022-10-14T04:15:00.305Z,100230
2022-10-14T04:16:04.017Z,100230
2022-10-14T04:17:00.391Z,100233
2022-10-14T04:18:00.346Z,100233
2022-10-14T04:19:00.349Z,100233
2022-10-14T04:20:00.425Z,100233
2022-10-14T04:21:01.534Z,100233
2022-10-14T04:22:00.524Z,100232
2022-10-14T04:23:00.319Z,100232
2022-10-14T04:24:03.679Z,100232
2022-10-14T04:25:00.307Z,100232
2022-10-14T04:26:04.637Z,100232
2022-10-14T04:27:00.318Z,100224
2022-10-14T04:28:00.326Z,100224
2022-10-14T04:29:00.427Z,100224
2022-10-14T04:30:00.332Z,100224
2022-10-14T04:31:00.820Z,100224
2022-10-14T04:32:00.336Z,100220
2022-10-14T04:33:00.334Z,100220
2022-10-14T04:34:00.326Z,100220
2022-10-14T04:35:00.308Z,100220
2022-10-14T04:36:01.436Z,100220
2022-10-14T04:37:00.530Z,100228
2022-10-14T04:38:00.346Z,100228
2022-10-14T04:39:00.361Z,100228
2022-10-14T04:40:00.312Z,100228
2022-10-14T04:41:00.555Z,100228
2022-10-14T04:42:00.317Z,100220
2022-10-14T04:43:00.310Z,100220
2022-10-14T04:44:00.371Z,100220
2022-10-14T04:45:00.309Z,100220
2022-10-14T04:46:00.431Z,100220
2022-10-14T04:47:00.309Z,100218
2022-10-14T04:48:00.400Z,100218
2022-10-14T04:49:00.309Z,100218
2022-10-14T04:50:00.391Z,100218
2022-10-14T04:51:00.325Z,100218
2022-10-14T04:52:00.385Z,100218
2022-10-14T04:53:00.381Z,100218
2022-10-14T04:54:00.318Z,100218
2022-10-14T04:55:00.434Z,100218
2022-10-14T04:56:00.352Z,100218
2022-10-14T04:57:00.340Z,100207
2022-10-14T04:58:00.322Z,100207
2022-10-14T04:59:00.461Z,100207
2022-10-14T05:00:00.562Z,100207
2022-10-14T05:01:00.324Z,100207
2022-10-14T05:02:00.364Z,100201
2022-10-14T05:03:00.372Z,100201
2022-10-14T05:04:00.376Z,100201
2022-10-14T05:05:00.330Z,100201
2022-10-14T05:06:00.356Z,100201
2022-10-14T05:07:00.343Z,100202
2022-10-14T05:08:00.320Z,100202
2022-10-14T05:09:00.319Z,100202
2022-10-14T05:10:00.320Z,100202
2022-10-14T05:11:00.480Z,100202
2022-10-14T05:12:00.313Z,100203
2022-10-14T05:13:00.656Z,100203
2022-10-14T05:14:00.339Z,100203
2022-10-14T05:15:00.368Z,100203
2022-10-14T05:16:00.788Z,100203
2022-10-14T05:17:00.443Z,100197
2022-10-14T05:18:00.358Z,100197
2022-10-14T05:19:00.302Z,100197
2022-10-14T05:20:00.312Z,100197
2022-10-14T05:21:00.300Z,100197
2022-10-14T05:22:00.312Z,100196
2022-10-14T05:23:00.308Z,100196
2022-10-14T05:24:00.306Z,100196
2022-10-14T05:25:00.306Z,100196
2022-10-14T05:26:00.335Z,100196
2022-10-14T05:27:00.378Z,100187
2022-10-14T05:28:00.360Z,100187
2022-10-14T05:29:00.437Z,100187
2022-10-14T05:30:00.328Z,100187
2022-10-14T05:31:00.323Z,100187
2022-10-14T05:32:00.301Z,100182
2022-10-14T05:33:00.391Z,100182
2022-10-14T05:34:00.541Z,100182
2022-10-14T05:35:00.410Z,100182
2022-10-14T05:36:00.401Z,100182
2022-10-14T05:37:00.829Z,100190
2022-10-14T05:38:04.071Z,100190
2022-10-14T05:39:00.477Z,100190
2022-10-14T05:40:01.005Z,100190
2022-10-14T05:41:01.000Z,100190
2022-10-14T05:42:00.503Z,100179
2022-10-14T05:43:00.333Z,100179
2022-10-14T05:44:00.352Z,100179
2022-10-14T05:45:00.310Z,100179
2022-10-14T05:46:00.351Z,100179
2022-10-14T05:47:00.625Z,100171
2022-10-14T05:48:00.339Z,100171
2022-10-14T05:49:00.301Z,100171
2022-10-14T05:50:00.301Z,100171
2022-10-14T05:51:00.331Z,100171
2022-10-14T05:52:00.309Z,100171
2022-10-14T05:53:00.315Z,100171
2022-10-14T05:54:00.492Z,100171
2022-10-14T05:55:00.553Z,100171
2022-10-14T05:56:02.678Z,100171
2022-10-14T05:57:00.358Z,100168
2022-10-14T05:58:00.460Z,100168
2022-10-14T05:59:00.298Z,100168
2022-10-14T06:00:00.347Z,100168
2022-10-14T06:01:01.125Z,100168
2022-10-14T06:02:00.713Z,100162
2022-10-14T06:03:00.462Z,100162
2022-10-14T06:04:00.358Z,100162
2022-10-14T06:05:00.347Z,100162
2022-10-14T06:06:00.417Z,100162
2022-10-14T06:07:00.309Z,100164
2022-10-14T06:08:00.341Z,100164
2022-10-14T06:09:00.323Z,100164
2022-10-14T06:10:00.301Z,100164
2022-10-14T06:11:02.058Z,100164
2022-10-14T06:12:00.403Z,100163
2022-10-14T06:13:00.332Z,100163
2022-10-14T06:14:00.302Z,100163
2022-10-14T06:15:00.290Z,100163
2022-10-14T06:16:01.951Z,100163
2022-10-14T06:17:00.320Z,100160
2022-10-14T06:18:00.302Z,100160
2022-10-14T06:19:00.858Z,100160
2022-10-14T06:20:00.337Z,100160
2022-10-14T06:21:00.444Z,100160
2022-10-14T06:22:00.378Z,100164
2022-10-14T06:23:00.923Z,100164
2022-10-14T06:24:00.306Z,100164
2022-10-14T06:25:04.067Z,100164
2022-10-14T06:26:04.112Z,100164
2022-10-14T06:27:00.401Z,100157
2022-10-14T06:28:02.775Z,100157
2022-10-14T06:29:00.449Z,100157
2022-10-14T06:30:00.365Z,100157
2022-10-14T06:31:00.432Z,100157
2022-10-14T06:32:00.292Z,100158
2022-10-14T06:33:00.331Z,100158
2022-10-14T06:34:03.434Z,100158
2022-10-14T06:35:00.364Z,100158
2022-10-14T06:36:01.604Z,100158
2022-10-14T06:37:02.353Z,100160
2022-10-14T06:38:00.301Z,100160
2022-10-14T06:39:00.433Z,100160
2022-10-14T06:40:00.403Z,100160
2022-10-14T06:41:00.338Z,100160
2022-10-14T06:42:01.159Z,100157
2022-10-14T06:43:00.312Z,100157
2022-10-14T06:44:00.305Z,100157
2022-10-14T06:45:00.326Z,100157
2022-10-14T06:46:00.958Z,100157
2022-10-14T06:47:00.305Z,100143
2022-10-14T06:48:00.361Z,100143
2022-10-14T06:49:00.632Z,100143
2022-10-14T06:50:00.303Z,100143
2022-10-14T06:51:01.040Z,100143
2022-10-14T06:52:00.305Z,100145
2022-10-14T06:53:00.337Z,100145
2022-10-14T06:54:00.397Z,100145
2022-10-14T06:55:00.421Z,100145
2022-10-14T06:56:01.808Z,100145
2022-10-14T06:57:00.337Z,100149
2022-10-14T06:58:00.372Z,100149
2022-10-14T06:59:00.289Z,100149
2022-10-14T07:00:00.593Z,100149
2022-10-14T07:01:01.945Z,100149
2022-10-14T07:02:00.417Z,100146
2022-10-14T07:03:00.310Z,100146
2022-10-14T07:04:00.323Z,100146
2022-10-14T07:05:00.400Z,100146
2022-10-14T07:06:01.981Z,100146
2022-10-14T07:07:00.297Z,100148
2022-10-14T07:09:00.292Z,100148
2022-10-14T07:10:00.310Z,100148
2022-10-14T07:11:00.388Z,100148
2022-10-14T07:12:00.389Z,100134
2022-10-14T07:13:00.385Z,100134
2022-10-14T07:14:00.296Z,100134
2022-10-14T07:15:00.437Z,100134
2022-10-14T07:16:00.356Z,100134
2022-10-14T07:17:00.383Z,100142
2022-10-14T07:18:00.372Z,100142
2022-10-14T07:19:00.306Z,100142
2022-10-14T07:20:00.333Z,100142
2022-10-14T07:21:01.064Z,100142
2022-10-14T07:22:00.329Z,100142
2022-10-14T07:23:00.423Z,100142
2022-10-14T07:24:00.382Z,100142
2022-10-14T07:25:00.401Z,100142
2022-10-14T07:26:00.423Z,100142
2022-10-14T07:27:00.603Z,100145
2022-10-14T07:28:00.322Z,100145
2022-10-14T07:29:02.850Z,100145
2022-10-14T07:31:01.489Z,100145
2022-10-14T07:32:00.330Z,100129
2022-10-14T07:33:00.349Z,100129
2022-10-14T07:34:00.489Z,100129
2022-10-14T07:35:00.352Z,100129
2022-10-14T07:36:00.979Z,100129
2022-10-14T07:37:00.411Z,100134
2022-10-14T07:38:00.327Z,100134
2022-10-14T07:39:00.514Z,100134
2022-10-14T07:40:00.307Z,100134
2022-10-14T07:41:02.092Z,100134
2022-10-14T07:42:00.356Z,100136
2022-10-14T07:43:00.330Z,100136
2022-10-14T07:44:01.856Z,100136
2022-10-14T07:45:00.480Z,100136
2022-10-14T07:46:02.034Z,100136
2022-10-14T07:47:00.315Z,100143
2022-10-14T07:48:00.867Z,100143
2022-10-14T07:49:03.033Z,100143
2022-10-14T07:50:00.399Z,100143
2022-10-14T07:51:00.367Z,100143
2022-10-14T07:52:00.307Z,100139
2022-10-14T07:53:01.570Z,100139
2022-10-14T07:54:01.082Z,100139
2022-10-14T07:55:00.691Z,100139
2022-10-14T07:56:00.471Z,100139
2022-10-14T07:57:00.300Z,100150
2022-10-14T07:58:00.296Z,100150
2022-10-14T07:59:00.379Z,100150
2022-10-14T08:00:00.480Z,100150
2022-10-14T08:01:00.302Z,100150
2022-10-14T08:02:00.456Z,100156
2022-10-14T08:03:00.325Z,100156
2022-10-14T08:04:00.765Z,100156
2022-10-14T08:05:18.935Z,100156
2022-10-14T08:06:01.590Z,100156
2022-10-14T08:07:00.303Z,100170
2022-10-14T08:08:00.318Z,100170
2022-10-14T08:09:00.391Z,100170
2022-10-14T08:10:00.375Z,100170
2022-10-14T08:11:00.345Z,100170
2022-10-14T08:12:00.303Z,100178
2022-10-14T08:13:00.312Z,100178
2022-10-14T08:14:00.683Z,100178
2022-10-14T08:15:00.316Z,100178
2022-10-14T08:16:00.779Z,100178
2022-10-14T08:17:00.315Z,100182
2022-10-14T08:18:00.303Z,100182
2022-10-14T08:19:07.577Z,100182
2022-10-14T08:20:00.344Z,100182
2022-10-14T08:21:00.292Z,100182
2022-10-14T08:22:00.348Z,100183
2022-10-14T08:23:00.374Z,100183
2022-10-14T08:24:00.328Z,100183
2022-10-14T08:25:00.422Z,100183
2022-10-14T08:26:00.449Z,100183
2022-10-14T08:27:00.380Z,100192
2022-10-14T08:28:00.314Z,100192
2022-10-14T08:29:01.252Z,100192
2022-10-14T08:30:00.320Z,100192
2022-10-14T08:31:00.312Z,100192
2022-10-14T08:32:00.321Z,100193
2022-10-14T08:33:00.398Z,100193
2022-10-14T08:34:00.358Z,100193
2022-10-14T08:35:00.326Z,100193
2022-10-14T08:36:00.311Z,100193
2022-10-14T08:37:00.834Z,100202
2022-10-14T08:38:00.944Z,100202
2022-10-14T08:39:00.413Z,100202
2022-10-14T08:40:00.302Z,100202
2022-10-14T08:41:10.194Z,100202
2022-10-14T08:42:10.201Z,100194
2022-10-14T08:43:04.888Z,100194
2022-10-14T08:44:10.193Z,100194
2022-10-14T08:45:02.475Z,100194
2022-10-14T08:46:10.218Z,100194
2022-10-14T08:47:02.453Z,100187
2022-10-14T08:48:02.873Z,100187
2022-10-14T08:49:05.238Z,100187
2022-10-14T08:50:01.299Z,100187
2022-10-14T08:51:06.493Z,100187
2022-10-14T08:52:02.481Z,100177
2022-10-14T08:53:08.817Z,100177
2022-10-14T08:54:04.835Z,100177
2022-10-14T08:55:02.579Z,100177
2022-10-14T08:56:01.263Z,100177
2022-10-14T08:57:01.647Z,100173
2022-10-14T08:58:10.418Z,100173
2022-10-14T08:59:04.076Z,100173
2022-10-14T09:00:00.850Z,100173
2022-10-14T09:01:02.137Z,100173
2022-10-14T09:02:02.938Z,100156
2022-10-14T09:03:04.180Z,100156
2022-10-14T09:04:03.561Z,100156
2022-10-14T09:05:00.566Z,100156
2022-10-14T09:06:01.879Z,100156
2022-10-14T09:07:00.969Z,100151
2022-10-14T09:08:00.672Z,100151
2022-10-14T09:09:07.631Z,100151
2022-10-14T09:10:04.817Z,100151
2022-10-14T09:11:00.632Z,100151
2022-10-14T09:12:03.992Z,100147
2022-10-14T09:13:10.211Z,100147
2022-10-14T09:14:01.562Z,100147
2022-10-14T09:15:05.396Z,100147
2022-10-14T09:16:03.113Z,100147
2022-10-14T09:17:05.442Z,100141
2022-10-14T09:19:01.769Z,100141
2022-10-14T09:20:10.230Z,100141
2022-10-14T09:21:01.247Z,100141
2022-10-14T09:22:00.586Z,100138
2022-10-14T09:23:01.321Z,100138
2022-10-14T09:24:10.190Z,100138
2022-10-14T09:25:00.350Z,100138
2022-10-14T09:26:04.266Z,100138
2022-10-14T09:27:03.200Z,100140
2022-10-14T09:28:00.634Z,100140
2022-10-14T09:29:01.059Z,100140
2022-10-14T09:30:01.069Z,100140
2022-10-14T09:31:00.360Z,100140
2022-10-14T09:32:02.396Z,100140
2022-10-14T09:33:00.437Z,100140
2022-10-14T09:34:00.330Z,100140
2022-10-14T09:35:00.988Z,100140
2022-10-14T09:36:00.490Z,100140
2022-10-14T09:37:10.188Z,100129
2022-10-14T09:38:00.389Z,100129
2022-10-14T09:39:03.887Z,100129
2022-10-14T09:40:00.281Z,100129
2022-10-14T09:41:00.372Z,100129
2022-10-14T09:42:00.338Z,100141
2022-10-14T09:43:07.770Z,100141
2022-10-14T09:44:10.244Z,100141
2022-10-14T09:46:04.675Z,100141
2022-10-14T09:47:02.241Z,100133
2022-10-14T09:48:02.764Z,100133
2022-10-14T09:49:01.067Z,100133
2022-10-14T09:50:00.401Z,100133
2022-10-14T09:51:02.105Z,100133
2022-10-14T09:52:00.434Z,100132
2022-10-14T09:53:02.490Z,100132
2022-10-14T09:54:02.033Z,100132
2022-10-14T09:55:00.568Z,100132
2022-10-14T09:56:02.174Z,100132
2022-10-14T09:57:03.997Z,100133
2022-10-14T09:58:04.936Z,100133
2022-10-14T09:59:00.884Z,100133
2022-10-14T10:00:02.546Z,100133
2022-10-14T10:01:01.004Z,100133
2022-10-14T10:02:01.104Z,100120
2022-10-14T10:03:00.351Z,100120
2022-10-14T10:04:10.206Z,100120
2022-10-14T10:05:10.180Z,100120
2022-10-14T10:06:09.086Z,100120
2022-10-14T10:07:01.952Z,100124
2022-10-14T10:08:10.200Z,100124
2022-10-14T10:09:00.338Z,100124
2022-10-14T10:10:01.349Z,100124
2022-10-14T10:11:03.778Z,100124
2022-10-14T10:12:10.211Z,100121
2022-10-14T10:13:00.614Z,100121
2022-10-14T10:14:10.208Z,100121
2022-10-14T10:15:04.352Z,100121
2022-10-14T10:16:02.396Z,100121
2022-10-14T10:17:07.746Z,100111
2022-10-14T10:18:00.305Z,100111
2022-10-14T10:19:10.185Z,100111
2022-10-14T10:20:08.047Z,100111
2022-10-14T10:21:02.030Z,100111
2022-10-14T10:22:10.232Z,100110
2022-10-14T10:23:10.203Z,100110
2022-10-14T10:24:01.762Z,100110
2022-10-14T10:25:00.332Z,100110
2022-10-14T10:26:10.203Z,100110
2022-10-14T10:27:08.147Z,100101
2022-10-14T10:28:00.321Z,100101
2022-10-14T10:29:01.518Z,100101
2022-10-14T10:30:10.220Z,100101
2022-10-14T10:31:07.201Z,100101
2022-10-14T10:32:00.323Z,100096
2022-10-14T10:33:10.196Z,100096
2022-10-14T10:34:01.322Z,100096
2022-10-14T10:35:06.077Z,100096
2022-10-14T10:36:03.597Z,100096
2022-10-14T10:37:04.451Z,100088
2022-10-14T10:38:10.201Z,100088
2022-10-14T10:39:00.327Z,100088
2022-10-14T10:40:10.293Z,100088
2022-10-14T10:41:03.573Z,100088
2022-10-14T10:42:08.347Z,100092
2022-10-14T10:43:01.310Z,100092
2022-10-14T10:44:10.287Z,100092
2022-10-14T10:45:05.816Z,100092
2022-10-14T10:46:10.245Z,100092
2022-10-14T10:47:07.692Z,100093
2022-10-14T10:48:05.134Z,100093
2022-10-14T10:49:08.963Z,100093
2022-10-14T10:50:01.544Z,100093
2022-10-14T10:51:04.372Z,100093
2022-10-14T10:52:10.258Z,100096
2022-10-14T10:53:00.344Z,100096
2022-10-14T10:54:01.363Z,100096
2022-10-14T10:55:07.935Z,100096
2022-10-14T10:56:00.351Z,100096
2022-10-14T10:57:06.124Z,100091
2022-10-14T10:58:02.642Z,100091
2022-10-14T10:59:08.274Z,100091
2022-10-14T11:00:07.694Z,100091
2022-10-14T11:01:04.364Z,100091
2022-10-14T11:02:10.243Z,100098
2022-10-14T11:03:00.345Z,100098
2022-10-14T11:04:09.508Z,100098
2022-10-14T11:05:10.237Z,100098
2022-10-14T11:06:00.307Z,100098
2022-10-14T11:07:08.235Z,100094
2022-10-14T11:08:07.690Z,100094
2022-10-14T11:09:04.183Z,100094
2022-10-14T11:10:10.218Z,100094
2022-10-14T11:11:11.615Z,100094
2022-10-14T11:12:10.209Z,100096
2022-10-14T11:13:04.938Z,100096
2022-10-14T11:14:03.609Z,100096
2022-10-14T11:15:10.277Z,100096
2022-10-14T11:16:10.236Z,100096
2022-10-14T11:17:05.737Z,100094
2022-10-14T11:18:10.215Z,100094
2022-10-14T11:19:00.333Z,100094
2022-10-14T11:20:07.856Z,100094
2022-10-14T11:21:10.268Z,100094
2022-10-14T11:22:01.338Z,100090
2022-10-14T11:23:10.220Z,100090
2022-10-14T11:24:00.347Z,100090
2022-10-14T11:25:07.274Z,100090
2022-10-14T11:26:05.833Z,100090
2022-10-14T11:27:01.346Z,100085
2022-10-14T11:28:10.209Z,100085
2022-10-14T11:29:01.571Z,100085
2022-10-14T11:30:10.231Z,100085
2022-10-14T11:31:00.292Z,100085
2022-10-14T11:32:01.315Z,100086
2022-10-14T11:33:10.191Z,100086
2022-10-14T11:34:10.185Z,100086
2022-10-14T11:35:10.203Z,100086
2022-10-14T11:36:10.209Z,100086
2022-10-14T11:37:10.197Z,100073
2022-10-14T11:38:10.190Z,100073
2022-10-14T11:39:10.189Z,100073
2022-10-14T11:40:02.435Z,100073
2022-10-14T11:41:03.615Z,100073
2022-10-14T11:42:01.327Z,100072
2022-10-14T11:43:10.194Z,100072
2022-10-14T11:44:07.800Z,100072
2022-10-14T11:45:10.219Z,100072
2022-10-14T11:46:03.896Z,100072
2022-10-14T11:47:02.906Z,100064
2022-10-14T11:48:09.287Z,100064
2022-10-14T11:49:10.227Z,100064
2022-10-14T11:50:10.235Z,100064
2022-10-14T11:51:06.337Z,100064
2022-10-14T11:52:03.207Z,100069
2022-10-14T11:53:08.130Z,100069
2022-10-14T11:54:10.188Z,100069
2022-10-14T11:55:13.698Z,100069
2022-10-14T11:56:03.741Z,100069
2022-10-14T11:57:03.797Z,100067
2022-10-14T11:58:10.215Z,100067
2022-10-14T11:59:02.702Z,100067
2022-10-14T12:00:03.950Z,100067
2022-10-14T12:01:02.347Z,100067
2022-10-14T12:02:03.076Z,100065
2022-10-14T12:03:05.292Z,100065
2022-10-14T12:04:03.567Z,100065
2022-10-14T12:05:00.283Z,100065
2022-10-14T12:06:03.635Z,100065
2022-10-14T12:07:04.649Z,100055
2022-10-14T12:08:03.545Z,100055
2022-10-14T12:09:00.325Z,100055
2022-10-14T12:10:02.952Z,100055
2022-10-14T12:11:05.066Z,100055
2022-10-14T12:12:02.361Z,100054
2022-10-14T12:13:00.691Z,100054
2022-10-14T12:14:10.184Z,100054
2022-10-14T12:15:04.691Z,100054
2022-10-14T12:16:02.335Z,100054
2022-10-14T12:17:05.289Z,100053
2022-10-14T12:18:00.555Z,100053
2022-10-14T12:19:00.649Z,100053
2022-10-14T12:20:06.621Z,100053
2022-10-14T12:21:10.217Z,100053
2022-10-14T12:22:00.292Z,100052
2022-10-14T12:23:02.096Z,100052
2022-10-14T12:24:05.113Z,100052
2022-10-14T12:25:02.427Z,100052
2022-10-14T12:26:10.211Z,100052
2022-10-14T12:27:02.195Z,100046
2022-10-14T12:28:00.682Z,100046
2022-10-14T12:29:03.743Z,100046
2022-10-14T12:30:00.355Z,100046
2022-10-14T12:31:10.213Z,100046
2022-10-14T12:32:03.609Z,100043